PWSweather.com
Personal Weather Stations
Station Observations
N7MNK
Silver Springs N. Of Katka Peak, Moyie Springs, ID 83845

Silver Springs N. Of Katka PeakMoyie Springs, ID 83845

Lat: 48.6942181533144, Lon: -116.11900806427

Elevation: 2280

Station Type: WH1080

Latest ConditionsUpdated 9:19:37 AM PST Friday, Dec 19, 2014
Currently Today's Max Today's Min Today's Average
Temperature 34.7°F1.5°C 34.7°F1.5°C 33.3°F0.7°C 33.5°F0.8°C
Dew Point 31.2°F-0.4°C 31.2°F-0.4°C 29.8°F-1.2°C 30.1°F-1.1°C
Winds Calm Calm Calm Calm - Calm Calm
Wind Gusts -- 0.7 mph1.1 kmh - -
Humidity 87% 87% 87% 87%
Pressure 29.68 in1005.1 mb 29.74 in1007.1 mb 29.68 in1005.1 mb -
Precipitation - 0.04 in1.0 mm - -
Hour Temp Dew Point Humidity Winds Wind Gusts Pressure Precip Precip Rate Daily Precip Total
09:19 AM 34.7°F1.5°C 31.2°F-0.4°C 87% Calm Calm -- 29.68 in1005.1 mb 0.00 in0.0 mm 0.00 in/hr0.0 mm/hr 0.04 in1.0 mm
09:08 AM 34.5°F1.4°C 31.1°F-0.5°C 87% Calm Calm -- 29.68 in1005.1 mb 0.01 in0.3 mm 0.00 in/hr0.0 mm/hr 0.04 in1.0 mm
08:57 AM 34.3°F1.3°C 30.9°F-0.6°C 87% Calm Calm -- 29.68 in1005.1 mb 0.01 in0.3 mm 0.00 in/hr0.0 mm/hr 0.04 in1.0 mm
08:46 AM 34.3°F1.3°C 30.9°F-0.6°C 87% Calm Calm -- 29.68 in1005.1 mb 0.01 in0.3 mm 0.00 in/hr0.0 mm/hr 0.04 in1.0 mm
08:35 AM 34.3°F1.3°C 30.9°F-0.6°C 87% Calm Calm -- 29.68 in1005.1 mb 0.02 in0.5 mm 0.00 in/hr0.0 mm/hr 0.04 in1.0 mm
08:24 AM 34.2°F1.2°C 30.7°F-0.7°C 87% Calm Calm -- 29.68 in1005.1 mb 0.02 in0.5 mm 0.00 in/hr0.0 mm/hr 0.04 in1.0 mm
08:13 AM 34.2°F1.2°C 30.7°F-0.7°C 87% Calm Calm -- 29.68 in1005.1 mb 0.02 in0.5 mm 0.05 in/hr1.3 mm/hr 0.04 in1.0 mm
08:02 AM 34.0°F1.1°C 30.5°F-0.8°C 87% Calm Calm -- 29.68 in1005.1 mb 0.01 in0.3 mm 0.00 in/hr0.0 mm/hr 0.02 in0.5 mm
07:51 AM 33.8°F1.0°C 30.4°F-0.9°C 87% Calm Calm -- 29.68 in1005.1 mb 0.01 in0.3 mm 0.05 in/hr1.3 mm/hr 0.02 in0.5 mm
07:40 AM 33.6°F0.9°C 30.2°F-1.0°C 87% Calm Calm -- 29.68 in1005.1 mb 0.00 in0.0 mm 0.00 in/hr0.0 mm/hr 0.01 in0.3 mm
07:29 AM 33.6°F0.9°C 30.2°F-1.0°C 87% Calm Calm -- 29.69 in1005.4 mb 0.01 in0.3 mm 0.00 in/hr0.0 mm/hr 0.01 in0.3 mm
07:18 AM 33.4°F0.8°C 30.0°F-1.1°C 87% Calm Calm -- 29.69 in1005.4 mb 0.01 in0.3 mm 0.00 in/hr0.0 mm/hr 0.01 in0.3 mm
07:07 AM 33.3°F0.7°C 29.8°F-1.2°C 87% Calm Calm -- 29.69 in1005.4 mb 0.01 in0.3 mm 0.00 in/hr0.0 mm/hr 0.01 in0.3 mm
06:56 AM 33.3°F0.7°C 29.8°F-1.2°C 87% Calm Calm -- 29.69 in1005.4 mb 0.01 in0.3 mm 0.00 in/hr0.0 mm/hr 0.01 in0.3 mm
06:45 AM 33.3°F0.7°C 29.8°F-1.2°C 87% Calm Calm -- 29.69 in1005.4 mb 0.01 in0.3 mm 0.00 in/hr0.0 mm/hr 0.01 in0.3 mm
06:34 AM 33.3°F0.7°C 29.8°F-1.2°C 87% Calm Calm -- 29.69 in1005.4 mb 0.01 in0.3 mm 0.05 in/hr1.3 mm/hr 0.01 in0.3 mm
06:23 AM 33.3°F0.7°C 29.8°F-1.2°C 87% Calm Calm -- 29.69 in1005.4 mb 0.00 in0.0 mm 0.00 in/hr0.0 mm/hr 0.00 in0.0 mm
06:12 AM 33.4°F0.8°C 30.0°F-1.1°C 87% Calm Calm -- 29.69 in1005.4 mb 0.00 in0.0 mm 0.00 in/hr0.0 mm/hr 0.00 in0.0 mm
06:01 AM 33.4°F0.8°C 30.0°F-1.1°C 87% Calm Calm -- 29.69 in1005.4 mb 0.00 in0.0 mm 0.00 in/hr0.0 mm/hr 0.00 in0.0 mm
05:50 AM 33.6°F0.9°C 30.2°F-1.0°C 87% Calm Calm -- 29.68 in1005.1 mb 0.00 in0.0 mm 0.00 in/hr0.0 mm/hr 0.00 in0.0 mm
05:39 AM 33.6°F0.9°C 30.2°F-1.0°C 87% Calm Calm -- 29.68 in1005.1 mb 0.00 in0.0 mm 0.00 in/hr0.0 mm/hr 0.00 in0.0 mm
05:28 AM 33.6°F0.9°C 30.2°F-1.0°C 87% Calm Calm -- 29.68 in1005.1 mb 0.00 in0.0 mm 0.00 in/hr0.0 mm/hr 0.00 in0.0 mm
05:17 AM 33.6°F0.9°C 30.2°F-1.0°C 87% Calm Calm -- 29.68 in1005.1 mb 0.00 in0.0 mm 0.00 in/hr0.0 mm/hr 0.00 in0.0 mm
05:06 AM 33.6°F0.9°C 30.2°F-1.0°C 87% Calm Calm -- 29.69 in1005.4 mb 0.00 in0.0 mm 0.00 in/hr0.0 mm/hr 0.00 in0.0 mm
04:55 AM 33.6°F0.9°C 30.2°F-1.0°C 87% Calm Calm -- 29.69 in1005.4 mb 0.00 in0.0 mm 0.00 in/hr0.0 mm/hr 0.00 in0.0 mm
04:44 AM 33.6°F0.9°C 30.2°F-1.0°C 87% Calm Calm -- 29.69 in1005.4 mb 0.00 in0.0 mm 0.00 in/hr0.0 mm/hr 0.00 in0.0 mm
04:33 AM 33.4°F0.8°C 30.0°F-1.1°C 87% Calm Calm -- 29.69 in1005.4 mb 0.00 in0.0 mm 0.00 in/hr0.0 mm/hr 0.00 in0.0 mm
04:22 AM 33.3°F0.7°C 29.8°F-1.2°C 87% Calm Calm -- 29.70 in1005.8 mb 0.00 in0.0 mm 0.00 in/hr0.0 mm/hr 0.00 in0.0 mm
04:11 AM 33.3°F0.7°C 29.8°F-1.2°C 87% Calm Calm -- 29.69 in1005.4 mb 0.00 in0.0 mm 0.00 in/hr0.0 mm/hr 0.00 in0.0 mm
04:00 AM 33.3°F0.7°C 29.8°F-1.2°C 87% Calm Calm -- 29.70 in1005.8 mb 0.00 in0.0 mm 0.00 in/hr0.0 mm/hr 0.00 in0.0 mm
03:49 AM 33.3°F0.7°C 29.8°F-1.2°C 87% Calm Calm -- 29.70 in1005.8 mb 0.00 in0.0 mm 0.00 in/hr0.0 mm/hr 0.00 in0.0 mm
03:38 AM 33.3°F0.7°C 29.8°F-1.2°C 87% Calm Calm -- 29.71 in1006.1 mb 0.00 in0.0 mm 0.00 in/hr0.0 mm/hr 0.00 in0.0 mm
03:27 AM 33.3°F0.7°C 29.8°F-1.2°C 87% Calm Calm -- 29.71 in1006.1 mb 0.00 in0.0 mm 0.00 in/hr0.0 mm/hr 0.00 in0.0 mm
03:16 AM 33.3°F0.7°C 29.8°F-1.2°C 87% Calm Calm -- 29.71 in1006.1 mb 0.00 in0.0 mm 0.00 in/hr0.0 mm/hr 0.00 in0.0 mm
03:05 AM 33.4°F0.8°C 30.0°F-1.1°C 87% Calm Calm -- 29.72 in1006.4 mb 0.00 in0.0 mm 0.00 in/hr0.0 mm/hr 0.00 in0.0 mm
02:54 AM 33.4°F0.8°C 30.0°F-1.1°C 87% Calm Calm -- 29.72 in1006.4 mb 0.00 in0.0 mm 0.00 in/hr0.0 mm/hr 0.00 in0.0 mm
02:43 AM 33.4°F0.8°C 30.0°F-1.1°C 87% Calm Calm -- 29.72 in1006.4 mb 0.00 in0.0 mm 0.00 in/hr0.0 mm/hr 0.00 in0.0 mm
02:32 AM 33.4°F0.8°C 30.0°F-1.1°C 87% Calm Calm -- 29.73 in1006.8 mb 0.00 in0.0 mm 0.00 in/hr0.0 mm/hr 0.00 in0.0 mm
02:21 AM 33.4°F0.8°C 30.0°F-1.1°C 87% Calm Calm 0.7 mph1.1 kmh 29.73 in1006.8 mb 0.00 in0.0 mm 0.00 in/hr0.0 mm/hr 0.00 in0.0 mm
02:10 AM 33.4°F0.8°C 30.0°F-1.1°C 87% Calm Calm -- 29.73 in1006.8 mb 0.00 in0.0 mm 0.00 in/hr0.0 mm/hr 0.00 in0.0 mm
01:59 AM 33.3°F0.7°C 29.8°F-1.2°C 87% Calm Calm -- 29.73 in1006.8 mb 0.00 in0.0 mm 0.00 in/hr0.0 mm/hr 0.00 in0.0 mm
01:48 AM 33.3°F0.7°C 29.8°F-1.2°C 87% Calm Calm -- 29.73 in1006.8 mb 0.00 in0.0 mm 0.00 in/hr0.0 mm/hr 0.00 in0.0 mm
01:37 AM 33.3°F0.7°C 29.8°F-1.2°C 87% Calm Calm -- 29.73 in1006.8 mb 0.00 in0.0 mm 0.00 in/hr0.0 mm/hr 0.00 in0.0 mm
01:26 AM 33.4°F0.8°C 30.0°F-1.1°C 87% Calm Calm -- 29.73 in1006.8 mb 0.00 in0.0 mm 0.00 in/hr0.0 mm/hr 0.00 in0.0 mm
01:15 AM 33.4°F0.8°C 30.0°F-1.1°C 87% Calm Calm -- 29.74 in1007.1 mb 0.00 in0.0 mm 0.00 in/hr0.0 mm/hr 0.00 in0.0 mm
01:04 AM 33.3°F0.7°C 29.8°F-1.2°C 87% Calm Calm -- 29.74 in1007.1 mb 0.00 in0.0 mm 0.00 in/hr0.0 mm/hr 0.00 in0.0 mm
12:53 AM 33.3°F0.7°C 29.8°F-1.2°C 87% Calm Calm -- 29.74 in1007.1 mb 0.00 in0.0 mm 0.00 in/hr0.0 mm/hr 0.00 in0.0 mm
12:42 AM 33.3°F0.7°C 29.8°F-1.2°C 87% Calm Calm -- 29.74 in1007.1 mb 0.00 in0.0 mm 0.00 in/hr0.0 mm/hr 0.00 in0.0 mm
12:31 AM 33.3°F0.7°C 29.8°F-1.2°C 87% Calm Calm -- 29.74 in1007.1 mb 0.00 in0.0 mm 0.00 in/hr0.0 mm/hr 0.00 in0.0 mm
12:20 AM 33.3°F0.7°C 29.8°F-1.2°C 87% Calm Calm -- 29.74 in1007.1 mb 0.00 in0.0 mm 0.00 in/hr0.0 mm/hr 0.00 in0.0 mm
12:09 AM 33.3°F0.7°C 29.8°F-1.2°C 87% Calm Calm -- 29.74 in1007.1 mb 0.00 in0.0 mm 0.00 in/hr0.0 mm/hr 0.00 in0.0 mm